Time;durP1;ratioP1;P1;durP2;ratioP2;P2;SDS_P1;SDS_P2;PMS_P1;PMS_P2;Temp;Humidity;BMP_temperature;BMP_pressure;BME280_temperature;BME280_humidity;BME280_pressure;Samples;Min_cycle;Max_cycle;Signal;HPM_P1;HPM_P2
2022/04/23 00:00:59;;;;;;;12.10;9.23;;;11.40;99.90;;;;;;4891537;29;20228;-85
2022/04/23 00:03:26;;;;;;;11.37;8.63;;;11.30;99.90;;;;;;4895726;29;20197;-80
2022/04/23 00:05:53;;;;;;;15.63;9.60;;;11.30;99.90;;;;;;4893032;29;20603;-81
2022/04/23 00:08:20;;;;;;;15.83;9.20;;;11.30;99.90;;;;;;4895102;29;20636;-81
2022/04/23 00:10:47;;;;;;;14.63;9.50;;;11.30;99.90;;;;;;4900568;29;20223;-81
2022/04/23 00:13:13;;;;;;;14.00;9.33;;;11.30;99.90;;;;;;4903054;29;20211;-77
2022/04/23 00:15:40;;;;;;;13.90;9.30;;;11.30;99.90;;;;;;4902642;29;20196;-80
2022/04/23 00:18:08;;;;;;;14.20;9.97;;;11.30;99.90;;;;;;4903845;29;20224;-79
2022/04/23 00:20:37;;;;;;;17.07;10.17;;;11.30;99.90;;;;;;4907450;29;20231;-80
2022/04/23 00:23:05;;;;;;;17.30;10.50;;;11.20;99.90;;;;;;4892486;29;20688;-78
2022/04/23 00:25:35;;;;;;;16.43;10.17;;;11.20;99.90;;;;;;4910556;29;20196;-78
2022/04/23 00:28:02;;;;;;;14.20;9.13;;;11.20;99.90;;;;;;4892060;29;20205;-79
2022/04/23 00:30:28;;;;;;;15.10;9.97;;;11.10;99.90;;;;;;4891012;29;20275;-78
2022/04/23 00:33:00;;;;;;;14.90;10.00;;;11.10;99.90;;;;;;4894519;29;20201;-77
2022/04/23 00:35:27;;;;;;;17.87;10.80;;;11.10;99.90;;;;;;4892736;29;20214;-78
2022/04/23 00:37:54;;;;;;;15.40;9.90;;;11.10;99.90;;;;;;4892613;29;20757;-77
2022/04/23 00:40:24;;;;;;;14.37;9.43;;;11.00;99.90;;;;;;4895110;29;20231;-78
2022/04/23 00:42:55;;;;;;;16.87;10.80;;;11.00;99.90;;;;;;4897634;29;20203;-77
2022/04/23 00:45:23;;;;;;;18.77;10.60;;;11.00;99.90;;;;;;4894351;29;20207;-75
2022/04/23 00:47:51;;;;;;;15.00;10.13;;;11.00;99.90;;;;;;4897972;29;20240;-77
2022/04/23 00:50:21;;;;;;;16.47;10.40;;;11.00;99.90;;;;;;4893832;29;20242;-77
2022/04/23 00:52:49;;;;;;;17.23;10.70;;;10.90;99.90;;;;;;4896140;29;20226;-75
2022/04/23 00:55:16;;;;;;;17.50;10.93;;;10.90;99.90;;;;;;4892273;29;20220;-72
2022/04/23 00:57:43;;;;;;;16.63;10.70;;;10.90;99.90;;;;;;4894151;29;20696;-78
2022/04/23 01:00:11;;;;;;;18.13;10.97;;;10.90;99.90;;;;;;4895003;29;20249;-75
2022/04/23 01:02:38;;;;;;;16.63;10.93;;;10.90;99.90;;;;;;4892638;29;20200;-75
2022/04/23 01:05:09;;;;;;;15.70;10.50;;;10.90;99.90;;;;;;4890982;29;20202;-74
2022/04/23 01:07:45;;;;;;;16.10;10.90;;;10.90;99.90;;;;;;4897006;29;20678;-75
2022/04/23 01:10:12;;;;;;;15.57;10.67;;;10.80;99.90;;;;;;4893332;29;20704;-75
2022/04/23 01:12:39;;;;;;;19.07;11.50;;;10.80;99.90;;;;;;4893445;29;20212;-74
2022/04/23 01:15:07;;;;;;;16.63;10.73;;;10.80;99.90;;;;;;4892801;29;20203;-75
2022/04/23 01:17:35;;;;;;;18.37;11.33;;;10.70;99.90;;;;;;4896876;29;20228;-77
2022/04/23 01:20:11;;;;;;;20.70;11.80;;;10.70;99.90;;;;;;4904177;29;20246;-79
2022/04/23 01:22:40;;;;;;;18.30;11.70;;;10.70;99.90;;;;;;4896143;29;20693;-75
2022/04/23 01:25:12;;;;;;;18.13;11.47;;;10.70;99.90;;;;;;4887057;29;20200;-75
2022/04/23 01:27:40;;;;;;;20.10;12.00;;;10.70;99.90;;;;;;4897275;29;20260;-74
2022/04/23 01:30:10;;;;;;;19.73;11.90;;;10.60;99.90;;;;;;4896360;29;20271;-75
2022/04/23 01:32:36;;;;;;;18.73;11.77;;;10.60;99.90;;;;;;4898430;29;20212;-75
2022/04/23 01:35:04;;;;;;;20.07;12.00;;;10.50;99.90;;;;;;4894717;29;20196;-75
2022/04/23 01:37:31;;;;;;;18.30;11.60;;;10.50;99.90;;;;;;4896049;29;20235;-75
2022/04/23 01:39:58;;;;;;;20.30;12.53;;;10.50;99.90;;;;;;4902431;29;20226;-75
2022/04/23 01:42:24;;;;;;;19.80;11.63;;;10.50;99.90;;;;;;4893469;29;20227;-75
2022/04/23 01:44:53;;;;;;;16.77;11.20;;;10.50;99.90;;;;;;4903638;29;20196;-75
2022/04/23 01:47:19;;;;;;;20.80;11.43;;;10.60;99.90;;;;;;4897173;29;20212;-75
2022/04/23 01:49:48;;;;;;;18.07;12.00;;;10.50;99.90;;;;;;4915529;29;20306;-75
2022/04/23 01:52:14;;;;;;;18.30;11.87;;;10.50;99.90;;;;;;4896299;29;20233;-75
2022/04/23 01:54:41;;;;;;;19.03;12.03;;;10.50;99.90;;;;;;4900568;29;20200;-75
2022/04/23 01:57:07;;;;;;;20.50;11.37;;;10.50;99.90;;;;;;4898335;29;20202;-76
2022/04/23 01:59:34;;;;;;;18.50;11.87;;;10.40;99.90;;;;;;4897638;29;20223;-75
2022/04/23 02:02:01;;;;;;;18.67;12.37;;;10.40;99.90;;;;;;4893213;29;20259;-76
2022/04/23 02:04:28;;;;;;;19.30;12.10;;;10.40;99.90;;;;;;4899406;29;20721;-75
2022/04/23 02:06:54;;;;;;;20.07;12.70;;;10.30;99.90;;;;;;4897744;29;20665;-74
2022/04/23 02:09:21;;;;;;;18.73;12.30;;;10.30;99.90;;;;;;4896092;29;20234;-74
2022/04/23 02:11:48;;;;;;;18.37;12.20;;;10.40;99.90;;;;;;4899821;29;20260;-75
2022/04/23 02:14:15;;;;;;;19.63;13.23;;;10.50;99.90;;;;;;4897504;29;20275;-75
2022/04/23 02:16:42;;;;;;;20.17;12.37;;;10.50;99.90;;;;;;4896582;29;20200;-74
2022/04/23 02:19:09;;;;;;;19.10;12.33;;;10.50;99.90;;;;;;4895968;29;20231;-75
2022/04/23 02:21:37;;;;;;;19.53;11.93;;;10.60;99.90;;;;;;4905604;29;20819;-73
2022/04/23 02:24:04;;;;;;;18.57;11.70;;;10.60;99.90;;;;;;4895077;29;20256;-75
2022/04/23 02:26:31;;;;;;;20.17;12.70;;;10.50;99.90;;;;;;4896043;29;20206;-77
2022/04/23 02:28:58;;;;;;;21.10;12.97;;;10.50;99.90;;;;;;4901512;29;20400;-75
2022/04/23 02:31:24;;;;;;;19.30;12.80;;;10.60;99.90;;;;;;4895643;29;20220;-75
2022/04/23 02:33:51;;;;;;;19.67;12.33;;;10.60;99.90;;;;;;4896652;29;20231;-74
2022/04/23 02:36:18;;;;;;;18.90;12.27;;;10.50;99.90;;;;;;4896734;29;20204;-74
2022/04/23 02:38:44;;;;;;;19.70;12.87;;;10.50;99.90;;;;;;4893752;29;20288;-74
2022/04/23 02:41:11;;;;;;;19.30;12.33;;;10.50;99.90;;;;;;4895407;29;20201;-74
2022/04/23 02:43:38;;;;;;;20.60;12.47;;;10.40;99.90;;;;;;4896038;29;20200;-76
2022/04/23 02:46:05;;;;;;;17.23;11.70;;;10.40;99.90;;;;;;4896526;29;20219;-74
2022/04/23 02:48:32;;;;;;;22.57;12.63;;;10.30;99.90;;;;;;4896887;29;20214;-75
2022/04/23 02:51:00;;;;;;;20.70;12.57;;;10.40;99.90;;;;;;4894438;29;20224;-75
2022/04/23 02:53:26;;;;;;;16.50;11.13;;;10.40;99.90;;;;;;4897589;29;20219;-76
2022/04/23 02:55:56;;;;;;;21.30;12.97;;;10.40;99.90;;;;;;4894911;29;20203;-74
2022/04/23 02:58:26;;;;;;;19.70;12.13;;;10.40;99.90;;;;;;4895356;29;20228;-74
2022/04/23 03:00:53;;;;;;;18.90;11.93;;;10.30;99.90;;;;;;4897289;29;20603;-74
2022/04/23 03:03:21;;;;;;;18.47;11.60;;;10.40;99.90;;;;;;4898225;29;20200;-75
2022/04/23 03:05:48;;;;;;;19.07;12.53;;;10.30;99.90;;;;;;4895667;29;20192;-75
2022/04/23 03:08:15;;;;;;;19.80;12.60;;;10.40;99.90;;;;;;4894791;29;20458;-74
2022/04/23 03:10:42;;;;;;;18.37;12.57;;;10.30;99.90;;;;;;4907994;29;20224;-76
2022/04/23 03:13:09;;;;;;;19.93;12.37;;;10.20;99.90;;;;;;4896397;29;20204;-75
2022/04/23 03:15:36;;;;;;;20.77;12.17;;;10.20;99.90;;;;;;4896316;29;20212;-74
2022/04/23 03:18:04;;;;;;;18.20;12.20;;;10.20;99.90;;;;;;4895296;29;20757;-75
2022/04/23 03:20:32;;;;;;;18.73;12.23;;;10.30;99.90;;;;;;4891834;29;20708;-77
2022/04/23 03:22:59;;;;;;;19.10;12.13;;;10.20;99.90;;;;;;4899264;29;20219;-74
2022/04/23 03:25:26;;;;;;;19.57;12.13;;;10.20;99.90;;;;;;4895925;29;20204;-74
2022/04/23 03:27:52;;;;;;;19.87;11.60;;;10.20;99.90;;;;;;4895775;29;20295;-75
2022/04/23 03:30:20;;;;;;;19.83;12.47;;;10.20;99.90;;;;;;4890926;29;20223;-74
2022/04/23 03:32:47;;;;;;;20.77;12.03;;;10.20;99.90;;;;;;4910647;29;20668;-73
2022/04/23 03:35:14;;;;;;;17.00;11.77;;;10.30;99.90;;;;;;4894720;29;20713;-74
2022/04/23 03:37:42;;;;;;;18.30;12.20;;;10.20;99.90;;;;;;4894891;29;20211;-74
2022/04/23 03:40:10;;;;;;;18.97;11.57;;;10.30;99.90;;;;;;4894324;29;20435;-75
2022/04/23 03:42:37;;;;;;;18.90;11.80;;;10.30;99.90;;;;;;4895641;29;20203;-74
2022/04/23 03:45:05;;;;;;;18.93;11.50;;;10.30;99.90;;;;;;4896124;29;20208;-75
2022/04/23 03:47:32;;;;;;;17.50;11.77;;;10.30;99.90;;;;;;4895491;29;20205;-75
2022/04/23 03:50:07;;;;;;;17.37;10.80;;;10.30;99.90;;;;;;4891047;29;20242;-76
2022/04/23 03:52:34;;;;;;;18.37;11.70;;;10.30;99.90;;;;;;4909721;29;20234;-75
2022/04/23 03:55:02;;;;;;;18.00;11.23;;;10.40;99.90;;;;;;4895618;29;20201;-75
2022/04/23 03:57:29;;;;;;;17.50;11.70;;;10.50;99.90;;;;;;4896440;29;20356;-74
2022/04/23 03:59:55;;;;;;;18.60;12.00;;;10.50;99.90;;;;;;4894769;29;21011;-75
2022/04/23 04:02:22;;;;;;;17.23;10.67;;;10.50;99.90;;;;;;4896959;29;20203;-74
2022/04/23 04:04:49;;;;;;;18.13;11.60;;;10.50;99.90;;;;;;4895004;29;20203;-75
2022/04/23 04:07:19;;;;;;;19.33;11.33;;;10.50;99.90;;;;;;4896528;29;20203;-74
2022/04/23 04:09:46;;;;;;;21.13;11.70;;;10.50;99.90;;;;;;4892940;29;20307;-75
2022/04/23 04:12:13;;;;;;;17.20;10.90;;;10.50;99.90;;;;;;4893384;29;20636;-76
2022/04/23 04:14:39;;;;;;;18.47;11.03;;;10.50;99.90;;;;;;4893885;29;20212;-75
2022/04/23 04:17:09;;;;;;;17.00;11.10;;;10.50;99.90;;;;;;4895098;29;20564;-75
2022/04/23 04:19:37;;;;;;;16.87;10.90;;;10.60;99.90;;;;;;4894681;29;20231;-73
2022/04/23 04:22:04;;;;;;;16.10;11.03;;;10.60;99.90;;;;;;4895258;29;20213;-75
2022/04/23 04:24:31;;;;;;;16.70;11.07;;;10.60;99.90;;;;;;4895174;29;20264;-77
2022/04/23 04:27:00;;;;;;;15.83;10.37;;;10.60;99.90;;;;;;4895799;29;20260;-76
2022/04/23 04:29:27;;;;;;;16.17;10.57;;;10.60;99.90;;;;;;4893904;29;20660;-77
2022/04/23 04:31:54;;;;;;;16.10;10.60;;;10.70;99.90;;;;;;4892907;29;20206;-77
2022/04/23 04:34:29;;;;;;;16.33;10.40;;;10.80;99.90;;;;;;4895018;29;20688;-73
2022/04/23 04:37:10;;;;;;;16.37;10.03;;;10.80;99.90;;;;;;4897479;29;20297;-76
2022/04/23 04:39:38;;;;;;;16.33;9.80;;;10.80;99.90;;;;;;4893346;29;20227;-76
2022/04/23 04:42:06;;;;;;;14.13;9.97;;;10.90;99.90;;;;;;4894713;29;20203;-75
2022/04/23 04:44:34;;;;;;;14.63;9.83;;;10.90;99.90;;;;;;4893976;29;20647;-77
2022/04/23 04:47:01;;;;;;;15.40;10.37;;;10.90;99.90;;;;;;4892561;29;20195;-76
2022/04/23 04:49:27;;;;;;;14.70;9.90;;;10.90;99.90;;;;;;4897838;29;20722;-77
2022/04/23 04:51:54;;;;;;;16.17;9.70;;;11.00;99.90;;;;;;4894740;29;20204;-79
2022/04/23 04:54:24;;;;;;;14.93;9.77;;;11.10;99.90;;;;;;4897167;29;20199;-74
2022/04/23 04:56:52;;;;;;;14.07;9.40;;;11.10;99.90;;;;;;4893869;29;20208;-78
2022/04/23 04:59:22;;;;;;;13.43;9.10;;;11.20;99.90;;;;;;4895973;29;20223;-77
2022/04/23 05:01:50;;;;;;;15.13;8.93;;;11.40;99.90;;;;;;4909797;29;20279;-77
2022/04/23 05:04:17;;;;;;;12.37;8.90;;;11.40;99.90;;;;;;4898048;29;20694;-76
2022/04/23 05:06:44;;;;;;;12.77;8.87;;;11.50;99.90;;;;;;4896113;29;20627;-76
2022/04/23 05:09:11;;;;;;;14.60;8.93;;;11.60;99.90;;;;;;4893753;29;20648;-79
2022/04/23 05:11:38;;;;;;;12.77;8.50;;;11.70;99.90;;;;;;4893461;29;20699;-78
2022/04/23 05:14:04;;;;;;;13.57;8.57;;;11.70;99.90;;;;;;4894928;29;20260;-80
2022/04/23 05:16:31;;;;;;;11.27;8.23;;;11.70;99.90;;;;;;4894285;29;20590;-84
2022/04/23 05:18:58;;;;;;;12.27;8.20;;;11.80;99.90;;;;;;4897019;29;20224;-83
2022/04/23 05:21:25;;;;;;;11.33;8.03;;;11.80;99.90;;;;;;4891110;29;20590;-81
2022/04/23 05:23:51;;;;;;;13.57;7.73;;;11.80;99.90;;;;;;4893736;29;20208;-81
2022/04/23 05:26:19;;;;;;;11.07;7.90;;;11.80;99.90;;;;;;4898519;29;20201;-85
2022/04/23 05:28:46;;;;;;;11.20;7.80;;;11.90;99.90;;;;;;4891348;29;20196;-86
2022/04/23 05:31:12;;;;;;;12.07;8.03;;;11.90;99.90;;;;;;4889759;29;20744;-84
2022/04/23 05:33:39;;;;;;;11.17;7.53;;;11.90;99.90;;;;;;4897416;29;20208;-84
2022/04/23 05:36:06;;;;;;;16.17;8.73;;;12.00;99.90;;;;;;4897917;29;20201;-85
2022/04/23 05:38:37;;;;;;;10.57;7.30;;;12.00;99.90;;;;;;4891757;29;20224;-83
2022/04/23 05:41:04;;;;;;;12.07;7.47;;;12.10;99.90;;;;;;4893776;29;20223;-83
2022/04/23 05:43:31;;;;;;;10.27;7.10;;;12.10;99.90;;;;;;4893565;29;20624;-84
2022/04/23 05:45:59;;;;;;;12.87;7.57;;;12.20;99.90;;;;;;4895907;29;20659;-83
2022/04/23 05:48:27;;;;;;;10.83;7.53;;;12.20;99.90;;;;;;4892875;29;20209;-83
2022/04/23 05:50:54;;;;;;;10.13;6.73;;;12.20;99.90;;;;;;4893411;29;20704;-84
2022/04/23 05:53:21;;;;;;;9.37;6.63;;;12.20;99.90;;;;;;4907080;29;20304;-86
2022/04/23 05:55:47;;;;;;;14.37;6.90;;;12.20;99.90;;;;;;4893266;29;20605;-85
2022/04/23 05:58:14;;;;;;;13.50;7.40;;;12.10;99.90;;;;;;4888868;29;20210;-85
2022/04/23 06:00:41;;;;;;;11.77;7.53;;;12.20;99.90;;;;;;4897204;29;20229;-86
2022/04/23 06:03:08;;;;;;;10.20;7.07;;;12.20;99.90;;;;;;4897001;29;20206;-84
2022/04/23 06:05:34;;;;;;;11.10;7.10;;;12.30;99.90;;;;;;4895479;29;20707;-83
2022/04/23 06:08:01;;;;;;;12.87;6.90;;;12.40;99.90;;;;;;4887875;29;20197;-86
2022/04/23 06:10:28;;;;;;;8.50;6.03;;;12.50;99.90;;;;;;4888058;29;20281;-85
2022/04/23 06:12:55;;;;;;;11.80;6.67;;;12.60;99.90;;;;;;4895663;29;20238;-86
2022/04/23 06:15:21;;;;;;;11.33;6.80;;;12.60;99.90;;;;;;4901132;29;20623;-78
2022/04/23 06:17:48;;;;;;;18.63;6.73;;;12.80;99.90;;;;;;4895029;29;20204;-84
2022/04/23 06:20:15;;;;;;;12.80;6.57;;;12.90;99.90;;;;;;4896630;29;20274;-81
2022/04/23 06:22:41;;;;;;;8.93;6.20;;;12.90;99.90;;;;;;4896575;29;20206;-79
2022/04/23 06:25:08;;;;;;;7.77;5.87;;;12.90;99.90;;;;;;4895470;29;20199;-79
2022/04/23 06:27:37;;;;;;;10.73;6.23;;;12.90;99.90;;;;;;4893860;29;20202;-83
2022/04/23 06:30:05;;;;;;;10.43;6.40;;;13.00;99.90;;;;;;4892300;29;20689;-80
2022/04/23 06:32:32;;;;;;;10.83;6.63;;;13.10;99.90;;;;;;4898224;29;20213;-78
2022/04/23 06:34:58;;;;;;;10.80;6.27;;;13.30;99.90;;;;;;4896839;29;20204;-77
2022/04/23 06:37:25;;;;;;;9.90;7.30;;;13.60;99.90;;;;;;4897807;29;20207;-76
2022/04/23 06:39:51;;;;;;;8.93;6.80;;;13.60;99.90;;;;;;4894633;29;20227;-81
2022/04/23 06:42:18;;;;;;;9.13;6.37;;;13.60;99.90;;;;;;4899580;29;20201;-78
2022/04/23 06:44:45;;;;;;;9.77;6.37;;;13.60;99.90;;;;;;4898756;29;20204;-78
2022/04/23 06:47:14;;;;;;;9.70;6.23;;;13.50;99.90;;;;;;4895665;29;20195;-79
2022/04/23 06:49:41;;;;;;;9.47;6.30;;;13.70;99.90;;;;;;4892076;29;20231;-72
2022/04/23 06:52:07;;;;;;;9.57;6.80;;;13.90;99.90;;;;;;4896309;29;20213;-72
2022/04/23 06:54:34;;;;;;;9.73;6.40;;;14.20;99.90;;;;;;4888786;29;20217;-75
2022/04/23 06:57:01;;;;;;;7.60;5.73;;;14.50;99.90;;;;;;4901365;29;20740;-75
2022/04/23 06:59:29;;;;;;;10.73;6.20;;;14.70;99.90;;;;;;4894272;29;20235;-74
2022/04/23 07:02:01;;;;;;;11.70;6.40;;;14.70;99.90;;;;;;4889881;29;20218;-73
2022/04/23 07:04:30;;;;;;;13.63;6.47;;;14.80;99.90;;;;;;4888622;29;20688;-72
2022/04/23 07:06:57;;;;;;;11.00;6.57;;;14.80;99.90;;;;;;4893687;29;20196;-74
2022/04/23 07:09:23;;;;;;;8.90;5.83;;;14.40;99.90;;;;;;4889840;29;20227;-75
2022/04/23 07:11:51;;;;;;;8.70;5.77;;;14.50;99.90;;;;;;4894634;29;20212;-73
2022/04/23 07:14:18;;;;;;;9.07;5.90;;;14.70;99.90;;;;;;4897130;29;20198;-74
2022/04/23 07:16:45;;;;;;;8.40;5.63;;;14.80;99.90;;;;;;4893166;29;20210;-72
2022/04/23 07:19:11;;;;;;;9.00;5.90;;;14.90;99.90;;;;;;4898336;29;20225;-74
2022/04/23 07:21:38;;;;;;;7.93;5.53;;;14.80;99.90;;;;;;4898360;29;20202;-74
2022/04/23 07:24:10;;;;;;;7.33;5.13;;;15.00;99.90;;;;;;4894006;29;20673;-76
2022/04/23 07:26:38;;;;;;;7.30;5.30;;;15.00;99.90;;;;;;4897096;29;20207;-72
2022/04/23 07:29:07;;;;;;;8.93;5.07;;;14.90;99.90;;;;;;4911618;29;20259;-76
2022/04/23 07:31:34;;;;;;;6.47;5.10;;;15.20;99.90;;;;;;4893809;29;20214;-74
2022/04/23 07:39:33;;;;;;;8.00;5.30;;;14.70;99.90;;;;;;4889002;29;20238;-74
2022/04/23 07:42:00;;;;;;;8.53;5.30;;;14.80;99.90;;;;;;4887660;29;20580;-73
2022/04/23 07:44:27;;;;;;;8.47;6.20;;;14.80;99.90;;;;;;4892075;29;20198;-75
2022/04/23 07:46:53;;;;;;;8.47;6.20;;;14.60;99.90;;;;;;4893092;29;20202;-76
2022/04/23 07:49:20;;;;;;;8.57;6.13;;;14.60;99.90;;;;;;4892791;29;20247;-74
2022/04/23 07:51:47;;;;;;;10.53;5.77;;;14.80;99.90;;;;;;4886369;29;20259;-75
2022/04/23 07:54:14;;;;;;;8.47;6.17;;;14.90;99.90;;;;;;4891915;29;20260;-72
2022/04/23 07:56:42;;;;;;;8.60;6.50;;;15.20;99.90;;;;;;4891327;29;20223;-74
2022/04/23 07:59:08;;;;;;;8.10;6.03;;;15.30;99.90;;;;;;4892797;29;20242;-74
2022/04/23 08:01:35;;;;;;;10.07;6.40;;;15.50;99.90;;;;;;4893139;29;20240;-76
2022/04/23 08:04:03;;;;;;;8.83;6.27;;;15.70;99.90;;;;;;4895081;29;20196;-71
2022/04/23 08:06:31;;;;;;;10.67;6.43;;;15.70;99.90;;;;;;4905567;29;20212;-74
2022/04/23 08:08:57;;;;;;;8.03;6.27;;;15.70;99.90;;;;;;4893848;29;20223;-71
2022/04/23 08:11:24;;;;;;;8.40;6.00;;;15.90;99.90;;;;;;4893632;29;20200;-74
2022/04/23 08:13:51;;;;;;;8.47;6.53;;;16.00;99.90;;;;;;4893718;29;20196;-71
2022/04/23 08:16:18;;;;;;;8.53;6.23;;;15.80;99.90;;;;;;4893334;29;20228;-71
2022/04/23 08:18:44;;;;;;;9.40;5.80;;;15.60;99.90;;;;;;4894363;29;20228;-70
2022/04/23 08:21:13;;;;;;;10.07;5.83;;;15.40;99.90;;;;;;4894513;29;20228;-73
2022/04/23 08:23:39;;;;;;;10.97;6.20;;;15.30;99.90;;;;;;4893875;29;20208;-70
2022/04/23 08:26:06;;;;;;;8.07;6.23;;;15.50;99.90;;;;;;4895215;29;20207;-69
2022/04/23 08:31:18;;;;;;;7.60;5.00;;;16.20;99.90;;;;;;4892823;29;20257;-70
2022/04/23 08:34:00;;;;;;;7.37;5.77;;;16.70;99.90;;;;;;4893549;29;20207;-69
2022/04/23 08:36:29;;;;;;;6.80;5.10;;;16.70;99.90;;;;;;4893680;29;20200;-69
2022/04/23 08:38:59;;;;;;;6.33;4.83;;;16.80;99.90;;;;;;4894017;29;20219;-71
2022/04/23 08:41:30;;;;;;;6.70;4.97;;;16.90;99.90;;;;;;4892367;29;20192;-75
2022/04/23 08:43:58;;;;;;;6.77;4.97;;;17.10;99.90;;;;;;4924458;29;20579;-72
2022/04/23 08:46:27;;;;;;;5.67;4.50;;;16.90;99.90;;;;;;4891872;29;20197;-71
2022/04/23 08:49:09;;;;;;;9.00;4.80;;;17.20;99.90;;;;;;4893911;29;20200;-71
2022/04/23 08:51:38;;;;;;;7.93;4.67;;;17.20;99.90;;;;;;4894570;29;20201;-73
2022/04/23 08:54:11;;;;;;;5.43;4.47;;;17.00;99.90;;;;;;4893870;29;20207;-71
2022/04/23 08:56:40;;;;;;;6.87;4.73;;;17.10;99.90;;;;;;4889696;29;20478;-71
2022/04/23 08:59:08;;;;;;;9.27;4.43;;;17.30;99.90;;;;;;4893620;29;20646;-73
2022/04/23 09:01:36;;;;;;;6.20;4.40;;;17.80;99.90;;;;;;4891842;29;20540;-71
2022/04/23 09:04:04;;;;;;;5.87;4.20;;;18.10;99.90;;;;;;4893381;29;20205;-72
2022/04/23 09:06:42;;;;;;;8.30;4.47;;;17.70;99.90;;;;;;4897673;29;20890;-71
2022/04/23 09:09:19;;;;;;;5.13;4.27;;;17.80;99.90;;;;;;4890513;29;20482;-71
2022/04/23 09:11:50;;;;;;;6.83;4.57;;;17.60;99.90;;;;;;4921462;29;20234;-72
2022/04/23 09:14:25;;;;;;;4.77;3.93;;;17.30;99.90;;;;;;4892627;29;20192;-72
2022/04/23 09:25:40;;;;;;;6.20;4.20;;;18.10;99.90;;;;;;4887110;29;20208;-72
2022/04/23 09:28:20;;;;;;;7.87;4.00;;;18.60;99.90;;;;;;4887810;29;20210;-71
2022/04/23 09:30:49;;;;;;;6.13;4.57;;;19.00;99.90;;;;;;4892526;29;20224;-70
2022/04/23 09:33:16;;;;;;;7.53;4.50;;;18.80;99.90;;;;;;4887791;29;20201;-71
2022/04/23 09:35:59;;;;;;;6.63;4.40;;;18.50;99.90;;;;;;4892770;29;20208;-72
2022/04/23 09:38:27;;;;;;;8.80;4.33;;;18.50;99.90;;;;;;4892718;29;20668;-69
2022/04/23 09:41:15;;;;;;;5.63;3.87;;;18.90;99.90;;;;;;4891326;29;20224;-69
2022/04/23 09:43:44;;;;;;;7.23;4.67;;;18.80;99.90;;;;;;4892879;29;20200;-71
2022/04/23 09:46:11;;;;;;;6.37;4.70;;;18.60;99.90;;;;;;4893228;29;20583;-73
2022/04/23 09:48:40;;;;;;;6.27;4.80;;;18.60;99.90;;;;;;4895469;29;20199;-69
2022/04/23 09:51:24;;;;;;;6.43;4.53;;;18.30;99.90;;;;;;4890058;29;20231;-69
2022/04/23 09:53:53;;;;;;;6.50;4.07;;;18.30;99.90;;;;;;4904012;29;20279;-72
2022/04/23 09:56:25;;;;;;;7.03;4.13;;;18.40;99.90;;;;;;4898919;29;20255;-70
2022/04/23 09:58:52;;;;;;;7.97;4.10;;;18.60;99.90;;;;;;4895904;29;20212;-71
2022/04/23 10:01:20;;;;;;;5.87;4.30;;;18.90;99.90;;;;;;4888855;29;20216;-69
2022/04/23 10:03:54;;;;;;;10.60;4.63;;;19.10;99.90;;;;;;4893153;29;21548;-71
2022/04/23 10:06:23;;;;;;;6.33;4.97;;;18.90;99.90;;;;;;4887725;29;20291;-69
2022/04/23 10:08:57;;;;;;;14.13;4.37;;;18.50;99.90;;;;;;4890506;29;20260;-69
2022/04/23 10:11:26;;;;;;;8.57;4.13;;;18.30;99.90;;;;;;4892298;29;20620;-69
2022/04/23 10:14:04;;;;;;;6.20;4.37;;;18.60;99.90;;;;;;4895221;29;20200;-69
2022/04/23 10:16:34;;;;;;;6.67;4.43;;;18.10;99.90;;;;;;4890296;29;20226;-70
2022/04/23 10:19:04;;;;;;;6.13;4.07;;;18.50;99.90;;;;;;4895757;29;20205;-69
2022/04/23 10:21:53;;;;;;;7.10;4.20;;;18.90;99.90;;;;;;4894876;29;20287;-71
2022/04/23 10:24:38;;;;;;;6.50;4.03;;;19.20;99.90;;;;;;4892704;29;20581;-69
2022/04/23 10:27:10;;;;;;;6.10;4.13;;;19.10;99.90;;;;;;4894064;29;20200;-70
2022/04/23 10:29:37;;;;;;;6.23;4.30;;;18.60;99.90;;;;;;4894184;29;20342;-69
2022/04/23 10:32:10;;;;;;;8.13;5.00;;;18.80;99.90;;;;;;4894893;29;20223;-71
2022/04/23 10:34:38;;;;;;;7.83;4.70;;;19.00;99.90;;;;;;4908546;29;20208;-70
2022/04/23 10:37:29;;;;;;;7.03;4.27;;;19.10;99.90;;;;;;4907372;29;20203;-70
2022/04/23 10:39:56;;;;;;;6.70;4.73;;;19.40;99.90;;;;;;4910143;29;20333;-70
2022/04/23 10:42:24;;;;;;;6.37;4.57;;;19.70;99.90;;;;;;4894959;29;20196;-71
2022/04/23 10:44:55;;;;;;;5.97;4.67;;;20.00;99.90;;;;;;4894546;29;20700;-68
2022/04/23 10:47:34;;;;;;;5.83;4.60;;;19.80;99.90;;;;;;4896053;29;20303;-71
2022/04/23 10:50:22;;;;;;;5.63;4.60;;;19.70;99.90;;;;;;4890811;29;20255;-69
2022/04/23 10:52:50;;;;;;;5.97;4.40;;;20.00;99.90;;;;;;4892073;29;20208;-69
2022/04/23 10:55:17;;;;;;;9.98;3.67;;;20.40;99.90;;;;;;4889173;29;20660;-73
2022/04/23 10:57:49;;;;;;;6.18;3.92;;;20.50;99.90;;;;;;4895228;29;20204;-70
2022/04/23 11:00:17;;;;;;;6.28;3.97;;;20.80;99.90;;;;;;4891730;29;20239;-69
2022/04/23 11:02:53;;;;;;;6.13;3.97;;;21.00;99.90;;;;;;4893351;29;20615;-70
2022/04/23 11:14:56;;;;;;;7.13;4.50;;;20.80;99.90;;;;;;4888849;29;20208;-71
2022/04/23 11:17:36;;;;;;;7.22;4.97;;;20.60;99.90;;;;;;4889098;29;20205;-71
2022/04/23 11:20:03;;;;;;;6.82;4.95;;;20.70;99.90;;;;;;4896173;29;20228;-71
2022/04/23 11:22:30;;;;;;;8.20;5.75;;;21.10;99.90;;;;;;4914055;29;20204;-73
2022/04/23 11:24:57;;;;;;;8.90;5.43;;;20.70;99.90;;;;;;4898393;29;20200;-67
2022/04/23 11:27:25;;;;;;;7.80;5.30;;;20.40;99.90;;;;;;4896356;29;20196;-71
2022/04/23 11:29:52;;;;;;;6.15;4.70;;;20.50;99.90;;;;;;4894580;29;20220;-70
2022/04/23 11:32:27;;;;;;;8.65;5.57;;;20.70;99.90;;;;;;4891022;29;20260;-69
2022/04/23 11:35:03;;;;;;;8.27;5.83;;;20.40;99.90;;;;;;4896407;29;20199;-70
2022/04/23 11:37:30;;;;;;;9.10;6.23;;;19.80;99.90;;;;;;4889426;29;20200;-71
2022/04/23 11:40:12;;;;;;;10.30;6.47;;;19.50;99.90;;;;;;4893736;29;20231;-70
2022/04/23 11:42:39;;;;;;;11.60;6.70;;;19.40;99.90;;;;;;4894033;29;20196;-71
2022/04/23 11:45:07;;;;;;;7.83;6.00;;;19.20;99.90;;;;;;4896884;29;20200;-72
2022/04/23 11:47:35;;;;;;;10.20;6.13;;;19.40;99.90;;;;;;4897157;29;20203;-72
2022/04/23 11:50:21;;;;;;;9.33;6.23;;;19.70;99.90;;;;;;4890688;29;20228;-71
2022/04/23 11:53:03;;;;;;;8.00;5.73;;;19.60;99.90;;;;;;4894630;29;20219;-70
2022/04/23 11:55:32;;;;;;;9.70;6.10;;;19.70;99.90;;;;;;4894519;29;20216;-70
2022/04/23 11:58:01;;;;;;;8.43;5.73;;;19.80;99.90;;;;;;4895015;29;20213;-71
2022/04/23 12:00:32;;;;;;;8.10;5.67;;;20.10;99.90;;;;;;4909058;29;20224;-71
2022/04/23 12:02:59;;;;;;;9.97;6.27;;;20.40;99.90;;;;;;4895400;29;20252;-70
2022/04/23 12:05:32;;;;;;;9.85;6.70;;;20.50;99.90;;;;;;4893548;29;20196;-71
2022/04/23 12:07:59;;;;;;;8.13;6.13;;;20.50;99.90;;;;;;4894678;29;20196;-70
2022/04/23 12:10:28;;;;;;;10.13;6.97;;;20.20;99.90;;;;;;4893950;29;20271;-71
2022/04/23 12:12:58;;;;;;;10.63;6.40;;;19.80;99.90;;;;;;4891650;29;20677;-70
2022/04/23 12:15:25;;;;;;;14.50;7.30;;;19.70;99.90;;;;;;4894094;29;20204;-70
2022/04/23 12:17:57;;;;;;;11.63;7.20;;;19.50;99.90;;;;;;4893625;29;20218;-71
2022/04/23 12:20:25;;;;;;;14.77;7.70;;;19.80;99.90;;;;;;4908990;29;20239;-71
2022/04/23 12:23:00;;;;;;;12.97;7.20;;;20.00;99.90;;;;;;4894566;29;20230;-71
2022/04/23 12:25:29;;;;;;;13.60;7.13;;;20.20;99.90;;;;;;4894517;29;20204;-70
2022/04/23 12:42:32;;;;;;;10.13;6.20;;;20.20;99.90;;;;;;4892063;29;20640;-72
2022/04/23 12:44:59;;;;;;;10.65;6.65;;;20.30;99.90;;;;;;4894219;29;20204;-71
2022/04/23 12:47:31;;;;;;;12.10;7.60;;;20.10;99.90;;;;;;4886026;29;20198;-72
2022/04/23 12:50:00;;;;;;;10.88;7.57;;;20.10;99.90;;;;;;4894182;29;20220;-70
2022/04/23 12:52:41;;;;;;;14.13;8.90;;;20.00;99.90;;;;;;4894372;29;20287;-69
2022/04/23 12:55:22;;;;;;;14.18;8.07;;;20.00;99.90;;;;;;4907994;29;20212;-71
2022/04/23 12:57:48;;;;;;;13.67;8.77;;;20.10;99.90;;;;;;4892679;29;20204;-71
2022/04/23 13:00:17;;;;;;;14.97;8.17;;;20.10;99.90;;;;;;4893799;29;20228;-71
2022/04/23 13:02:48;;;;;;;14.40;9.07;;;20.20;99.90;;;;;;4892443;29;20689;-69
2022/04/23 13:05:15;;;;;;;11.43;8.27;;;20.30;99.90;;;;;;4893052;29;20211;-73
2022/04/23 13:10:28;;;;;;;13.07;8.90;;;20.60;99.90;;;;;;4893449;29;20224;-71
2022/04/23 13:12:54;;;;;;;14.77;9.32;;;20.40;99.90;;;;;;4893521;29;20200;-70
2022/04/23 13:15:21;;;;;;;13.15;8.57;;;20.40;99.90;;;;;;4893752;29;20205;-71
2022/04/23 13:17:48;;;;;;;11.05;8.10;;;20.40;99.90;;;;;;4893466;29;20204;-70
2022/04/23 13:20:16;;;;;;;13.63;8.48;;;20.40;99.90;;;;;;4906864;29;20231;-71
2022/04/23 13:22:43;;;;;;;13.50;8.40;;;20.40;99.90;;;;;;4892445;29;20201;-70
2022/04/23 13:25:16;;;;;;;28.05;9.88;;;20.30;99.90;;;;;;4893963;29;20200;-71
2022/04/23 13:27:43;;;;;;;14.47;8.17;;;20.10;99.90;;;;;;4892387;29;20294;-71
2022/04/23 13:30:11;;;;;;;19.83;8.93;;;19.80;99.90;;;;;;4893014;29;20688;-68